sensor_id;sensor_type;location;lat;lon;timestamp;temperature;humidity
12948;DHT22;6539;49.476;8.484;2023-07-13T00:00:38;22.30;97.30
12948;DHT22;6539;49.476;8.484;2023-07-13T00:03:24;22.20;97.50
12948;DHT22;6539;49.476;8.484;2023-07-13T00:06:10;22.10;97.80
12948;DHT22;6539;49.476;8.484;2023-07-13T00:08:59;22.10;97.70
12948;DHT22;6539;49.476;8.484;2023-07-13T00:11:49;22.10;98.00
12948;DHT22;6539;49.476;8.484;2023-07-13T00:14:38;22.10;98.20
12948;DHT22;6539;49.476;8.484;2023-07-13T00:17:24;22.00;98.60
12948;DHT22;6539;49.476;8.484;2023-07-13T00:20:11;22.00;98.80
12948;DHT22;6539;49.476;8.484;2023-07-13T00:22:59;21.90;99.10
12948;DHT22;6539;49.476;8.484;2023-07-13T00:25:48;22.00;99.30
12948;DHT22;6539;49.476;8.484;2023-07-13T00:28:37;21.90;99.10
12948;DHT22;6539;49.476;8.484;2023-07-13T00:31:30;21.90;99.20
12948;DHT22;6539;49.476;8.484;2023-07-13T00:34:19;21.80;99.00
12948;DHT22;6539;49.476;8.484;2023-07-13T00:37:06;21.80;99.30
12948;DHT22;6539;49.476;8.484;2023-07-13T00:39:53;21.70;99.50
12948;DHT22;6539;49.476;8.484;2023-07-13T00:42:40;21.60;99.80
12948;DHT22;6539;49.476;8.484;2023-07-13T00:48:20;21.60;99.90
12948;DHT22;6539;49.476;8.484;2023-07-13T00:51:12;21.50;99.90
12948;DHT22;6539;49.476;8.484;2023-07-13T00:54:05;21.40;99.90
12948;DHT22;6539;49.476;8.484;2023-07-13T00:57:02;21.40;99.90
12948;DHT22;6539;49.476;8.484;2023-07-13T00:59:55;21.40;99.90
12948;DHT22;6539;49.476;8.484;2023-07-13T01:02:52;21.40;99.90
12948;DHT22;6539;49.476;8.484;2023-07-13T01:05:41;21.40;99.90
12948;DHT22;6539;49.476;8.484;2023-07-13T01:08:27;21.40;99.90
12948;DHT22;6539;49.476;8.484;2023-07-13T01:11:19;21.40;99.90
12948;DHT22;6539;49.476;8.484;2023-07-13T01:14:08;21.30;99.90
12948;DHT22;6539;49.476;8.484;2023-07-13T01:16:57;21.30;99.90
12948;DHT22;6539;49.476;8.484;2023-07-13T01:19:48;21.30;99.90
12948;DHT22;6539;49.476;8.484;2023-07-13T01:22:37;21.20;99.90
12948;DHT22;6539;49.476;8.484;2023-07-13T01:25:25;21.10;99.90
12948;DHT22;6539;49.476;8.484;2023-07-13T01:28:11;21.00;99.90
12948;DHT22;6539;49.476;8.484;2023-07-13T01:31:03;20.90;99.90
12948;DHT22;6539;49.476;8.484;2023-07-13T01:33:49;20.90;99.90
12948;DHT22;6539;49.476;8.484;2023-07-13T01:36:39;20.90;99.90
12948;DHT22;6539;49.476;8.484;2023-07-13T01:39:25;20.90;99.90
12948;DHT22;6539;49.476;8.484;2023-07-13T01:42:11;20.90;99.90
12948;DHT22;6539;49.476;8.484;2023-07-13T01:45:02;20.90;99.90
12948;DHT22;6539;49.476;8.484;2023-07-13T01:47:48;20.90;99.90
12948;DHT22;6539;49.476;8.484;2023-07-13T01:50:34;20.90;99.90
12948;DHT22;6539;49.476;8.484;2023-07-13T01:53:21;20.80;99.90
12948;DHT22;6539;49.476;8.484;2023-07-13T01:56:07;20.90;99.90
12948;DHT22;6539;49.476;8.484;2023-07-13T01:58:53;20.80;99.90
12948;DHT22;6539;49.476;8.484;2023-07-13T02:01:39;20.80;99.90
12948;DHT22;6539;49.476;8.484;2023-07-13T02:04:27;20.80;99.90
12948;DHT22;6539;49.476;8.484;2023-07-13T02:07:13;20.70;99.90
12948;DHT22;6539;49.476;8.484;2023-07-13T02:10:03;20.70;99.90
12948;DHT22;6539;49.476;8.484;2023-07-13T02:12:54;20.70;99.90
12948;DHT22;6539;49.476;8.484;2023-07-13T02:15:40;20.60;99.90
12948;DHT22;6539;49.476;8.484;2023-07-13T02:18:26;20.60;99.90
12948;DHT22;6539;49.476;8.484;2023-07-13T02:21:13;20.60;99.90
12948;DHT22;6539;49.476;8.484;2023-07-13T02:23:59;20.60;99.90
12948;DHT22;6539;49.476;8.484;2023-07-13T02:26:48;20.60;99.90
12948;DHT22;6539;49.476;8.484;2023-07-13T02:29:34;20.50;99.90
12948;DHT22;6539;49.476;8.484;2023-07-13T02:32:20;20.50;99.90
12948;DHT22;6539;49.476;8.484;2023-07-13T02:35:09;20.50;99.90
12948;DHT22;6539;49.476;8.484;2023-07-13T02:37:57;20.40;99.90
12948;DHT22;6539;49.476;8.484;2023-07-13T02:40:43;20.40;99.90
12948;DHT22;6539;49.476;8.484;2023-07-13T02:43:32;20.30;99.90
12948;DHT22;6539;49.476;8.484;2023-07-13T02:46:18;20.30;99.90
12948;DHT22;6539;49.476;8.484;2023-07-13T02:49:06;20.20;99.90
12948;DHT22;6539;49.476;8.484;2023-07-13T02:51:54;20.20;99.90
12948;DHT22;6539;49.476;8.484;2023-07-13T02:54:43;20.30;99.90
12948;DHT22;6539;49.476;8.484;2023-07-13T02:57:31;20.20;99.90
12948;DHT22;6539;49.476;8.484;2023-07-13T03:00:18;20.20;99.90
12948;DHT22;6539;49.476;8.484;2023-07-13T03:03:04;20.20;99.90
12948;DHT22;6539;49.476;8.484;2023-07-13T03:06:02;20.20;99.90
12948;DHT22;6539;49.476;8.484;2023-07-13T03:08:50;20.10;99.90
12948;DHT22;6539;49.476;8.484;2023-07-13T03:11:36;20.10;99.90
12948;DHT22;6539;49.476;8.484;2023-07-13T03:14:23;20.00;99.90
12948;DHT22;6539;49.476;8.484;2023-07-13T03:17:08;19.90;99.90
12948;DHT22;6539;49.476;8.484;2023-07-13T03:19:57;19.90;99.90
12948;DHT22;6539;49.476;8.484;2023-07-13T03:22:46;20.00;99.90
12948;DHT22;6539;49.476;8.484;2023-07-13T03:25:36;19.90;99.90
12948;DHT22;6539;49.476;8.484;2023-07-13T03:28:25;19.90;99.90
12948;DHT22;6539;49.476;8.484;2023-07-13T03:31:16;19.80;99.90
12948;DHT22;6539;49.476;8.484;2023-07-13T03:34:04;19.70;99.90
12948;DHT22;6539;49.476;8.484;2023-07-13T03:36:53;19.70;99.90
12948;DHT22;6539;49.476;8.484;2023-07-13T03:39:40;19.70;99.90
12948;DHT22;6539;49.476;8.484;2023-07-13T03:42:28;19.70;99.90
12948;DHT22;6539;49.476;8.484;2023-07-13T03:45:17;19.60;99.90
12948;DHT22;6539;49.476;8.484;2023-07-13T03:48:04;19.70;99.90
12948;DHT22;6539;49.476;8.484;2023-07-13T03:50:52;19.70;99.90
12948;DHT22;6539;49.476;8.484;2023-07-13T03:53:39;19.70;99.90
12948;DHT22;6539;49.476;8.484;2023-07-13T03:56:29;19.70;99.90
12948;DHT22;6539;49.476;8.484;2023-07-13T03:59:18;19.80;99.90
12948;DHT22;6539;49.476;8.484;2023-07-13T04:02:07;19.90;99.90
12948;DHT22;6539;49.476;8.484;2023-07-13T04:04:53;19.90;99.90
12948;DHT22;6539;49.476;8.484;2023-07-13T04:07:41;19.90;99.90
12948;DHT22;6539;49.476;8.484;2023-07-13T04:10:27;19.90;99.90
12948;DHT22;6539;49.476;8.484;2023-07-13T04:13:13;19.80;99.90
12948;DHT22;6539;49.476;8.484;2023-07-13T04:16:00;19.80;99.90
12948;DHT22;6539;49.476;8.484;2023-07-13T04:18:48;19.80;99.90
12948;DHT22;6539;49.476;8.484;2023-07-13T04:21:34;19.80;99.90
12948;DHT22;6539;49.476;8.484;2023-07-13T04:24:20;19.90;99.90
12948;DHT22;6539;49.476;8.484;2023-07-13T04:27:06;20.00;99.90
12948;DHT22;6539;49.476;8.484;2023-07-13T04:29:57;20.10;99.90
12948;DHT22;6539;49.476;8.484;2023-07-13T04:32:43;20.00;99.90
12948;DHT22;6539;49.476;8.484;2023-07-13T04:35:34;19.80;99.90
12948;DHT22;6539;49.476;8.484;2023-07-13T04:38:24;19.90;99.90
12948;DHT22;6539;49.476;8.484;2023-07-13T04:41:15;19.90;99.90
12948;DHT22;6539;49.476;8.484;2023-07-13T04:44:01;20.00;99.90
12948;DHT22;6539;49.476;8.484;2023-07-13T04:46:48;20.00;99.90
12948;DHT22;6539;49.476;8.484;2023-07-13T04:49:37;20.20;99.90
12948;DHT22;6539;49.476;8.484;2023-07-13T04:52:23;20.40;99.90
12948;DHT22;6539;49.476;8.484;2023-07-13T04:55:10;20.60;99.90
12948;DHT22;6539;49.476;8.484;2023-07-13T04:58:00;20.50;99.90
12948;DHT22;6539;49.476;8.484;2023-07-13T05:00:49;20.50;99.90
12948;DHT22;6539;49.476;8.484;2023-07-13T05:03:35;20.50;99.90
12948;DHT22;6539;49.476;8.484;2023-07-13T05:06:21;20.50;99.90
12948;DHT22;6539;49.476;8.484;2023-07-13T05:09:07;20.50;99.90
12948;DHT22;6539;49.476;8.484;2023-07-13T05:11:58;20.50;99.90
12948;DHT22;6539;49.476;8.484;2023-07-13T05:14:44;20.50;99.90
12948;DHT22;6539;49.476;8.484;2023-07-13T05:17:30;20.60;99.90
12948;DHT22;6539;49.476;8.484;2023-07-13T05:20:17;20.60;99.90
12948;DHT22;6539;49.476;8.484;2023-07-13T05:23:04;20.70;99.90
12948;DHT22;6539;49.476;8.484;2023-07-13T05:25:50;20.60;99.90
12948;DHT22;6539;49.476;8.484;2023-07-13T05:28:41;20.60;99.90
12948;DHT22;6539;49.476;8.484;2023-07-13T05:31:30;20.60;99.90
12948;DHT22;6539;49.476;8.484;2023-07-13T05:34:16;20.60;99.90
12948;DHT22;6539;49.476;8.484;2023-07-13T05:37:05;20.60;99.90
12948;DHT22;6539;49.476;8.484;2023-07-13T05:39:53;20.50;99.90
12948;DHT22;6539;49.476;8.484;2023-07-13T05:42:41;20.50;99.90
12948;DHT22;6539;49.476;8.484;2023-07-13T05:45:30;20.50;99.90
12948;DHT22;6539;49.476;8.484;2023-07-13T05:48:18;20.50;99.90
12948;DHT22;6539;49.476;8.484;2023-07-13T05:51:07;20.50;99.90
12948;DHT22;6539;49.476;8.484;2023-07-13T05:53:58;20.50;99.90
12948;DHT22;6539;49.476;8.484;2023-07-13T05:56:44;20.60;99.90
12948;DHT22;6539;49.476;8.484;2023-07-13T05:59:30;20.60;99.90
12948;DHT22;6539;49.476;8.484;2023-07-13T06:02:16;20.50;99.90
12948;DHT22;6539;49.476;8.484;2023-07-13T06:05:02;20.60;99.90
12948;DHT22;6539;49.476;8.484;2023-07-13T06:07:48;20.50;99.90
12948;DHT22;6539;49.476;8.484;2023-07-13T06:10:37;20.50;99.90
12948;DHT22;6539;49.476;8.484;2023-07-13T06:13:23;20.40;99.90
12948;DHT22;6539;49.476;8.484;2023-07-13T06:16:11;20.40;99.90
12948;DHT22;6539;49.476;8.484;2023-07-13T06:18:58;20.50;99.90
12948;DHT22;6539;49.476;8.484;2023-07-13T06:21:47;20.50;99.90
12948;DHT22;6539;49.476;8.484;2023-07-13T06:24:33;20.60;99.90
12948;DHT22;6539;49.476;8.484;2023-07-13T06:27:21;20.70;99.90
12948;DHT22;6539;49.476;8.484;2023-07-13T06:30:07;20.80;99.90
12948;DHT22;6539;49.476;8.484;2023-07-13T06:32:54;20.90;99.90
12948;DHT22;6539;49.476;8.484;2023-07-13T06:35:40;21.00;99.90
12948;DHT22;6539;49.476;8.484;2023-07-13T06:38:26;21.10;99.90
12948;DHT22;6539;49.476;8.484;2023-07-13T06:41:12;21.20;99.90
12948;DHT22;6539;49.476;8.484;2023-07-13T06:44:00;21.30;99.90
12948;DHT22;6539;49.476;8.484;2023-07-13T06:46:51;21.50;99.90
12948;DHT22;6539;49.476;8.484;2023-07-13T06:49:39;21.50;99.90
12948;DHT22;6539;49.476;8.484;2023-07-13T06:52:25;21.70;99.90
12948;DHT22;6539;49.476;8.484;2023-07-13T06:55:11;21.80;99.90
12948;DHT22;6539;49.476;8.484;2023-07-13T06:57:58;21.80;99.90
12948;DHT22;6539;49.476;8.484;2023-07-13T07:00:44;21.90;99.90
12948;DHT22;6539;49.476;8.484;2023-07-13T07:03:30;22.00;99.90
12948;DHT22;6539;49.476;8.484;2023-07-13T07:06:22;22.00;99.90
12948;DHT22;6539;49.476;8.484;2023-07-13T07:09:09;22.10;99.90
12948;DHT22;6539;49.476;8.484;2023-07-13T07:11:55;22.00;99.90
12948;DHT22;6539;49.476;8.484;2023-07-13T07:14:42;22.10;99.90
12948;DHT22;6539;49.476;8.484;2023-07-13T07:17:28;22.00;99.90
12948;DHT22;6539;49.476;8.484;2023-07-13T07:20:16;22.00;99.90
12948;DHT22;6539;49.476;8.484;2023-07-13T07:23:05;22.20;99.90
12948;DHT22;6539;49.476;8.484;2023-07-13T07:25:51;22.30;99.90
12948;DHT22;6539;49.476;8.484;2023-07-13T07:28:37;22.50;99.90
12948;DHT22;6539;49.476;8.484;2023-07-13T07:31:23;22.40;99.90
12948;DHT22;6539;49.476;8.484;2023-07-13T07:34:09;22.20;99.90
12948;DHT22;6539;49.476;8.484;2023-07-13T07:36:59;22.30;99.90
12948;DHT22;6539;49.476;8.484;2023-07-13T07:39:49;22.40;99.90
12948;DHT22;6539;49.476;8.484;2023-07-13T07:42:35;22.50;99.90
12948;DHT22;6539;49.476;8.484;2023-07-13T07:45:21;22.60;99.90
12948;DHT22;6539;49.476;8.484;2023-07-13T07:48:08;22.60;99.90
12948;DHT22;6539;49.476;8.484;2023-07-13T07:50:55;22.50;99.90
12948;DHT22;6539;49.476;8.484;2023-07-13T07:53:43;22.60;99.90
12948;DHT22;6539;49.476;8.484;2023-07-13T07:56:29;22.60;99.90
12948;DHT22;6539;49.476;8.484;2023-07-13T07:59:15;22.70;99.90
12948;DHT22;6539;49.476;8.484;2023-07-13T08:02:02;22.60;99.90
12948;DHT22;6539;49.476;8.484;2023-07-13T08:04:48;22.50;99.90
12948;DHT22;6539;49.476;8.484;2023-07-13T08:07:35;22.60;99.90
12948;DHT22;6539;49.476;8.484;2023-07-13T08:10:22;22.70;99.90
12948;DHT22;6539;49.476;8.484;2023-07-13T08:13:08;22.80;99.90
12948;DHT22;6539;49.476;8.484;2023-07-13T08:15:54;22.90;99.90
12948;DHT22;6539;49.476;8.484;2023-07-13T08:18:42;22.90;99.90
12948;DHT22;6539;49.476;8.484;2023-07-13T08:21:28;23.10;99.90
12948;DHT22;6539;49.476;8.484;2023-07-13T08:24:17;22.90;99.90
12948;DHT22;6539;49.476;8.484;2023-07-13T08:27:04;22.70;99.90
12948;DHT22;6539;49.476;8.484;2023-07-13T08:29:53;22.60;99.90
12948;DHT22;6539;49.476;8.484;2023-07-13T08:32:39;22.70;99.90
12948;DHT22;6539;49.476;8.484;2023-07-13T08:35:25;22.80;99.90
12948;DHT22;6539;49.476;8.484;2023-07-13T08:38:17;23.00;99.90
12948;DHT22;6539;49.476;8.484;2023-07-13T08:41:18;23.30;99.90
12948;DHT22;6539;49.476;8.484;2023-07-13T08:44:15;23.60;99.90
12948;DHT22;6539;49.476;8.484;2023-07-13T08:47:14;23.90;99.90
12948;DHT22;6539;49.476;8.484;2023-07-13T08:50:04;24.00;99.90
12948;DHT22;6539;49.476;8.484;2023-07-13T08:52:58;24.10;99.90
12948;DHT22;6539;49.476;8.484;2023-07-13T08:55:58;24.00;99.90
12948;DHT22;6539;49.476;8.484;2023-07-13T08:58:51;24.10;99.90
12948;DHT22;6539;49.476;8.484;2023-07-13T09:14:47;24.10;99.70
12948;DHT22;6539;49.476;8.484;2023-07-13T09:17:41;24.40;99.20
12948;DHT22;6539;49.476;8.484;2023-07-13T09:20:48;24.40;98.90
12948;DHT22;6539;49.476;8.484;2023-07-13T09:23:39;24.30;98.90
12948;DHT22;6539;49.476;8.484;2023-07-13T09:26:30;24.30;98.70
12948;DHT22;6539;49.476;8.484;2023-07-13T09:29:27;24.60;98.10
12948;DHT22;6539;49.476;8.484;2023-07-13T09:32:18;24.60;97.50
12948;DHT22;6539;49.476;8.484;2023-07-13T09:35:12;24.50;97.40
12948;DHT22;6539;49.476;8.484;2023-07-13T09:38:11;24.30;97.60
12948;DHT22;6539;49.476;8.484;2023-07-13T09:44:31;24.40;98.20
12948;DHT22;6539;49.476;8.484;2023-07-13T09:50:16;24.70;97.40
12948;DHT22;6539;49.476;8.484;2023-07-13T09:53:02;24.50;96.50
12948;DHT22;6539;49.476;8.484;2023-07-13T09:55:49;24.50;96.70
12948;DHT22;6539;49.476;8.484;2023-07-13T09:58:35;24.80;96.50
12948;DHT22;6539;49.476;8.484;2023-07-13T10:01:35;25.00;96.40
12948;DHT22;6539;49.476;8.484;2023-07-13T10:04:34;24.90;96.10
12948;DHT22;6539;49.476;8.484;2023-07-13T10:07:22;25.00;96.20
12948;DHT22;6539;49.476;8.484;2023-07-13T10:10:19;24.80;95.50
12948;DHT22;6539;49.476;8.484;2023-07-13T10:13:25;24.80;95.50
12948;DHT22;6539;49.476;8.484;2023-07-13T10:16:14;24.70;95.30
12948;DHT22;6539;49.476;8.484;2023-07-13T10:19:17;24.50;95.10
12948;DHT22;6539;49.476;8.484;2023-07-13T10:22:30;24.30;95.20
12948;DHT22;6539;49.476;8.484;2023-07-13T10:25:25;24.20;94.80
12948;DHT22;6539;49.476;8.484;2023-07-13T10:28:27;24.20;95.10
12948;DHT22;6539;49.476;8.484;2023-07-13T10:31:19;24.40;94.60
12948;DHT22;6539;49.476;8.484;2023-07-13T10:34:09;24.30;94.50
12948;DHT22;6539;49.476;8.484;2023-07-13T10:36:58;24.40;95.00
12948;DHT22;6539;49.476;8.484;2023-07-13T10:39:46;25.10;94.60
12948;DHT22;6539;49.476;8.484;2023-07-13T10:42:40;25.70;93.90
12948;DHT22;6539;49.476;8.484;2023-07-13T10:45:34;26.20;92.20
12948;DHT22;6539;49.476;8.484;2023-07-13T10:48:25;26.20;90.60
12948;DHT22;6539;49.476;8.484;2023-07-13T10:51:18;26.10;90.70
12948;DHT22;6539;49.476;8.484;2023-07-13T10:54:21;26.20;90.30
12948;DHT22;6539;49.476;8.484;2023-07-13T10:57:18;26.10;88.20
12948;DHT22;6539;49.476;8.484;2023-07-13T11:00:17;25.90;87.30
12948;DHT22;6539;49.476;8.484;2023-07-13T11:03:04;26.40;83.10
12948;DHT22;6539;49.476;8.484;2023-07-13T11:05:51;26.60;80.80
12948;DHT22;6539;49.476;8.484;2023-07-13T11:08:57;26.90;79.60
12948;DHT22;6539;49.476;8.484;2023-07-13T11:11:51;27.30;79.50
12948;DHT22;6539;49.476;8.484;2023-07-13T11:15:06;27.60;79.90
12948;DHT22;6539;49.476;8.484;2023-07-13T11:18:00;28.20;78.60
12948;DHT22;6539;49.476;8.484;2023-07-13T11:20:51;29.00;76.50
12948;DHT22;6539;49.476;8.484;2023-07-13T11:23:42;27.80;74.40
12948;DHT22;6539;49.476;8.484;2023-07-13T11:26:51;27.20;76.40
12948;DHT22;6539;49.476;8.484;2023-07-13T11:29:38;26.40;77.80
12948;DHT22;6539;49.476;8.484;2023-07-13T11:32:30;26.60;79.10
12948;DHT22;6539;49.476;8.484;2023-07-13T11:35:23;27.00;77.40
12948;DHT22;6539;49.476;8.484;2023-07-13T11:38:17;27.20;77.90
12948;DHT22;6539;49.476;8.484;2023-07-13T11:41:16;27.30;75.20
12948;DHT22;6539;49.476;8.484;2023-07-13T11:44:12;27.50;75.60
12948;DHT22;6539;49.476;8.484;2023-07-13T11:47:10;28.10;75.40
12948;DHT22;6539;49.476;8.484;2023-07-13T11:50:00;28.20;74.40
12948;DHT22;6539;49.476;8.484;2023-07-13T11:52:46;27.90;74.90
12948;DHT22;6539;49.476;8.484;2023-07-13T11:55:38;28.40;74.30
12948;DHT22;6539;49.476;8.484;2023-07-13T11:58:28;29.50;71.90
12948;DHT22;6539;49.476;8.484;2023-07-13T12:01:27;29.60;67.50
12948;DHT22;6539;49.476;8.484;2023-07-13T12:04:30;29.80;65.30
12948;DHT22;6539;49.476;8.484;2023-07-13T12:07:22;30.40;62.00
12948;DHT22;6539;49.476;8.484;2023-07-13T12:12:58;30.50;61.60
12948;DHT22;6539;49.476;8.484;2023-07-13T12:15:49;30.00;63.20
12948;DHT22;6539;49.476;8.484;2023-07-13T12:18:37;30.40;63.00
12948;DHT22;6539;49.476;8.484;2023-07-13T12:21:30;31.00;61.90
12948;DHT22;6539;49.476;8.484;2023-07-13T12:24:20;31.20;60.70
12948;DHT22;6539;49.476;8.484;2023-07-13T12:33:08;30.00;62.80
12948;DHT22;6539;49.476;8.484;2023-07-13T12:36:04;29.40;63.80
12948;DHT22;6539;49.476;8.484;2023-07-13T12:38:54;28.60;64.20
12948;DHT22;6539;49.476;8.484;2023-07-13T12:41:40;27.90;65.90
12948;DHT22;6539;49.476;8.484;2023-07-13T12:44:29;27.80;64.40
12948;DHT22;6539;49.476;8.484;2023-07-13T12:47:20;27.50;65.80
12948;DHT22;6539;49.476;8.484;2023-07-13T12:50:19;27.20;67.10
12948;DHT22;6539;49.476;8.484;2023-07-13T12:53:20;27.80;67.10
12948;DHT22;6539;49.476;8.484;2023-07-13T12:56:25;27.90;63.70
12948;DHT22;6539;49.476;8.484;2023-07-13T12:59:18;28.20;63.90
12948;DHT22;6539;49.476;8.484;2023-07-13T13:02:33;28.30;63.70
12948;DHT22;6539;49.476;8.484;2023-07-13T13:05:20;27.90;64.50
12948;DHT22;6539;49.476;8.484;2023-07-13T13:08:11;27.60;64.90
12948;DHT22;6539;49.476;8.484;2023-07-13T13:10:58;28.00;64.70
12948;DHT22;6539;49.476;8.484;2023-07-13T13:13:46;28.10;64.70
12948;DHT22;6539;49.476;8.484;2023-07-13T13:16:35;28.10;65.00
12948;DHT22;6539;49.476;8.484;2023-07-13T13:19:29;27.90;64.30
12948;DHT22;6539;49.476;8.484;2023-07-13T13:22:17;27.50;66.00
12948;DHT22;6539;49.476;8.484;2023-07-13T13:25:03;27.10;67.30
12948;DHT22;6539;49.476;8.484;2023-07-13T13:27:53;27.00;68.50
12948;DHT22;6539;49.476;8.484;2023-07-13T13:30:39;27.20;69.30
12948;DHT22;6539;49.476;8.484;2023-07-13T13:33:26;27.30;67.50
12948;DHT22;6539;49.476;8.484;2023-07-13T13:36:17;27.30;67.20
12948;DHT22;6539;49.476;8.484;2023-07-13T13:39:36;27.50;66.40
12948;DHT22;6539;49.476;8.484;2023-07-13T13:42:29;27.90;65.00
12948;DHT22;6539;49.476;8.484;2023-07-13T13:45:17;27.90;64.80
12948;DHT22;6539;49.476;8.484;2023-07-13T13:48:03;27.50;65.30
12948;DHT22;6539;49.476;8.484;2023-07-13T13:50:53;27.40;65.80
12948;DHT22;6539;49.476;8.484;2023-07-13T13:53:39;27.20;65.70
12948;DHT22;6539;49.476;8.484;2023-07-13T13:56:28;27.10;66.70
12948;DHT22;6539;49.476;8.484;2023-07-13T13:59:14;27.50;67.00
12948;DHT22;6539;49.476;8.484;2023-07-13T14:02:01;27.60;66.70
12948;DHT22;6539;49.476;8.484;2023-07-13T14:05:01;27.20;67.80
12948;DHT22;6539;49.476;8.484;2023-07-13T14:07:48;27.30;68.50
12948;DHT22;6539;49.476;8.484;2023-07-13T14:10:36;27.50;69.10
12948;DHT22;6539;49.476;8.484;2023-07-13T14:13:36;27.70;69.30
12948;DHT22;6539;49.476;8.484;2023-07-13T14:16:32;27.60;69.00
12948;DHT22;6539;49.476;8.484;2023-07-13T14:19:19;27.60;69.50
12948;DHT22;6539;49.476;8.484;2023-07-13T14:22:08;27.70;69.90
12948;DHT22;6539;49.476;8.484;2023-07-13T14:24:54;27.80;69.40
12948;DHT22;6539;49.476;8.484;2023-07-13T14:27:44;27.80;69.40
12948;DHT22;6539;49.476;8.484;2023-07-13T14:30:31;27.80;69.40
12948;DHT22;6539;49.476;8.484;2023-07-13T14:33:21;27.70;69.50
12948;DHT22;6539;49.476;8.484;2023-07-13T14:36:31;27.60;69.90
12948;DHT22;6539;49.476;8.484;2023-07-13T14:39:23;27.40;69.20
12948;DHT22;6539;49.476;8.484;2023-07-13T14:42:10;27.00;71.10
12948;DHT22;6539;49.476;8.484;2023-07-13T14:44:58;27.00;70.60
12948;DHT22;6539;49.476;8.484;2023-07-13T14:47:45;26.80;70.90
12948;DHT22;6539;49.476;8.484;2023-07-13T14:50:32;26.70;71.00
12948;DHT22;6539;49.476;8.484;2023-07-13T14:53:18;26.70;71.10
12948;DHT22;6539;49.476;8.484;2023-07-13T14:56:11;26.80;70.60
12948;DHT22;6539;49.476;8.484;2023-07-13T14:58:58;27.20;69.80
12948;DHT22;6539;49.476;8.484;2023-07-13T15:01:47;27.50;69.20
12948;DHT22;6539;49.476;8.484;2023-07-13T15:04:35;27.60;67.70
12948;DHT22;6539;49.476;8.484;2023-07-13T15:07:26;27.30;67.80
12948;DHT22;6539;49.476;8.484;2023-07-13T15:10:20;27.70;68.30
12948;DHT22;6539;49.476;8.484;2023-07-13T15:13:21;28.10;67.60
12948;DHT22;6539;49.476;8.484;2023-07-13T15:16:21;28.20;66.80
12948;DHT22;6539;49.476;8.484;2023-07-13T15:19:10;28.80;66.20
12948;DHT22;6539;49.476;8.484;2023-07-13T15:22:01;29.70;64.00
12948;DHT22;6539;49.476;8.484;2023-07-13T15:24:49;29.50;62.50
12948;DHT22;6539;49.476;8.484;2023-07-13T15:27:37;28.80;62.70
12948;DHT22;6539;49.476;8.484;2023-07-13T15:30:29;28.10;63.10
12948;DHT22;6539;49.476;8.484;2023-07-13T15:33:26;27.30;64.60
12948;DHT22;6539;49.476;8.484;2023-07-13T15:36:15;27.10;65.70
12948;DHT22;6539;49.476;8.484;2023-07-13T15:39:16;27.40;65.90
12948;DHT22;6539;49.476;8.484;2023-07-13T15:42:03;28.50;64.70
12948;DHT22;6539;49.476;8.484;2023-07-13T15:44:49;28.80;63.80
12948;DHT22;6539;49.476;8.484;2023-07-13T15:47:35;29.20;62.90
12948;DHT22;6539;49.476;8.484;2023-07-13T15:50:23;29.20;62.80
12948;DHT22;6539;49.476;8.484;2023-07-13T15:53:13;28.90;63.10
12948;DHT22;6539;49.476;8.484;2023-07-13T15:56:19;28.60;63.50
12948;DHT22;6539;49.476;8.484;2023-07-13T15:59:10;29.10;63.20
12948;DHT22;6539;49.476;8.484;2023-07-13T16:01:58;29.70;62.10
12948;DHT22;6539;49.476;8.484;2023-07-13T16:04:44;29.60;61.80
12948;DHT22;6539;49.476;8.484;2023-07-13T16:07:33;29.10;62.20
12948;DHT22;6539;49.476;8.484;2023-07-13T16:10:34;29.50;62.50
12948;DHT22;6539;49.476;8.484;2023-07-13T16:13:26;30.00;60.40
12948;DHT22;6539;49.476;8.484;2023-07-13T16:16:13;29.20;61.20
12948;DHT22;6539;49.476;8.484;2023-07-13T16:19:03;29.00;61.30
12948;DHT22;6539;49.476;8.484;2023-07-13T16:21:53;29.70;60.80
12948;DHT22;6539;49.476;8.484;2023-07-13T16:24:39;30.60;60.20
12948;DHT22;6539;49.476;8.484;2023-07-13T16:27:25;30.60;59.90
12948;DHT22;6539;49.476;8.484;2023-07-13T16:30:18;29.60;60.90
12948;DHT22;6539;49.476;8.484;2023-07-13T16:33:07;28.80;62.70
12948;DHT22;6539;49.476;8.484;2023-07-13T16:35:54;28.20;64.10
12948;DHT22;6539;49.476;8.484;2023-07-13T16:38:44;28.40;63.80
12948;DHT22;6539;49.476;8.484;2023-07-13T16:41:33;28.70;63.30
12948;DHT22;6539;49.476;8.484;2023-07-13T16:44:20;28.80;63.40
12948;DHT22;6539;49.476;8.484;2023-07-13T16:47:14;28.60;63.40
12948;DHT22;6539;49.476;8.484;2023-07-13T16:50:01;28.20;63.90
12948;DHT22;6539;49.476;8.484;2023-07-13T16:52:51;27.60;65.00
12948;DHT22;6539;49.476;8.484;2023-07-13T16:55:40;28.20;65.00
12948;DHT22;6539;49.476;8.484;2023-07-13T16:58:28;29.50;62.70
12948;DHT22;6539;49.476;8.484;2023-07-13T17:01:18;30.00;61.60
12948;DHT22;6539;49.476;8.484;2023-07-13T17:04:08;30.50;60.40
12948;DHT22;6539;49.476;8.484;2023-07-13T17:06:59;30.00;60.30
12948;DHT22;6539;49.476;8.484;2023-07-13T17:09:45;28.80;61.70
12948;DHT22;6539;49.476;8.484;2023-07-13T17:12:32;28.20;63.00
12948;DHT22;6539;49.476;8.484;2023-07-13T17:15:20;27.80;63.90
12948;DHT22;6539;49.476;8.484;2023-07-13T17:18:13;27.30;64.60
12948;DHT22;6539;49.476;8.484;2023-07-13T17:21:00;27.10;64.50
12948;DHT22;6539;49.476;8.484;2023-07-13T17:23:47;27.00;65.00
12948;DHT22;6539;49.476;8.484;2023-07-13T17:26:39;27.00;64.20
12948;DHT22;6539;49.476;8.484;2023-07-13T17:29:26;26.70;64.60
12948;DHT22;6539;49.476;8.484;2023-07-13T17:32:17;26.70;65.40
12948;DHT22;6539;49.476;8.484;2023-07-13T17:35:26;26.50;64.90
12948;DHT22;6539;49.476;8.484;2023-07-13T17:38:14;26.40;65.40
12948;DHT22;6539;49.476;8.484;2023-07-13T17:41:03;26.30;65.50
12948;DHT22;6539;49.476;8.484;2023-07-13T17:43:52;26.20;65.40
12948;DHT22;6539;49.476;8.484;2023-07-13T17:46:39;26.00;66.10
12948;DHT22;6539;49.476;8.484;2023-07-13T17:49:27;26.00;66.40
12948;DHT22;6539;49.476;8.484;2023-07-13T17:52:19;26.00;66.20
12948;DHT22;6539;49.476;8.484;2023-07-13T17:55:16;25.90;67.00
12948;DHT22;6539;49.476;8.484;2023-07-13T17:58:08;25.70;67.50
12948;DHT22;6539;49.476;8.484;2023-07-13T18:00:54;25.60;68.10
12948;DHT22;6539;49.476;8.484;2023-07-13T18:03:43;25.50;68.50
12948;DHT22;6539;49.476;8.484;2023-07-13T18:06:40;25.50;68.60
12948;DHT22;6539;49.476;8.484;2023-07-13T18:09:38;25.50;68.50
12948;DHT22;6539;49.476;8.484;2023-07-13T18:12:25;25.40;69.20
12948;DHT22;6539;49.476;8.484;2023-07-13T18:15:11;25.30;70.00
12948;DHT22;6539;49.476;8.484;2023-07-13T18:18:00;25.30;69.70
12948;DHT22;6539;49.476;8.484;2023-07-13T18:20:48;25.30;70.30
12948;DHT22;6539;49.476;8.484;2023-07-13T18:23:37;25.30;70.80
12948;DHT22;6539;49.476;8.484;2023-07-13T18:26:25;25.30;70.20
12948;DHT22;6539;49.476;8.484;2023-07-13T18:29:12;25.30;70.10
12948;DHT22;6539;49.476;8.484;2023-07-13T18:31:58;25.20;70.50
12948;DHT22;6539;49.476;8.484;2023-07-13T18:34:49;25.20;70.80
12948;DHT22;6539;49.476;8.484;2023-07-13T18:37:37;25.10;70.80
12948;DHT22;6539;49.476;8.484;2023-07-13T18:40:24;25.10;71.00